Time;durP1;ratioP1;P1;durP2;ratioP2;P2;SDS_P1;SDS_P2;PMS_P1;PMS_P2;Temp;Humidity;BMP_temperature;BMP_pressure;BME280_temperature;BME280_humidity;BME280_pressure;Samples;Min_cycle;Max_cycle;Signal;HPM_P1;HPM_P2
2021/11/23 00:00:18;;;;;;;41.20;24.05;;;3.50;99.90;;;;;;5051671;28;20056;-82
2021/11/23 00:02:44;;;;;;;41.17;23.10;;;3.50;99.90;;;;;;5053144;28;20028;-82
2021/11/23 00:05:11;;;;;;;41.80;23.65;;;3.60;99.90;;;;;;5050961;28;20473;-82
2021/11/23 00:07:37;;;;;;;40.22;21.98;;;3.50;99.90;;;;;;5052779;28;20075;-83
2021/11/23 00:10:05;;;;;;;38.80;23.95;;;3.50;99.90;;;;;;5054942;28;20025;-81
2021/11/23 00:12:32;;;;;;;40.03;24.25;;;3.50;99.90;;;;;;5057736;28;20021;-82
2021/11/23 00:14:57;;;;;;;40.70;24.35;;;3.50;99.90;;;;;;5051070;28;20017;-81
2021/11/23 00:17:24;;;;;;;39.38;24.67;;;3.50;99.90;;;;;;5039621;28;20091;-82
2021/11/23 00:19:50;;;;;;;41.55;24.35;;;3.50;99.90;;;;;;5033239;28;20025;-82
2021/11/23 00:22:16;;;;;;;40.15;24.00;;;3.50;99.90;;;;;;5033262;28;20018;-82
2021/11/23 00:24:42;;;;;;;46.45;23.85;;;3.50;99.90;;;;;;5032469;28;20501;-81
2021/11/23 00:27:08;;;;;;;44.88;23.92;;;3.50;99.90;;;;;;5031197;28;20060;-82
2021/11/23 00:29:34;;;;;;;40.85;23.25;;;3.50;99.90;;;;;;5033131;28;20455;-82
2021/11/23 00:32:00;;;;;;;43.65;23.50;;;3.50;99.90;;;;;;5032933;28;20103;-82
2021/11/23 00:34:26;;;;;;;45.42;25.25;;;3.50;99.90;;;;;;5048042;28;20052;-81
2021/11/23 00:36:53;;;;;;;40.97;24.98;;;3.50;99.90;;;;;;5052591;28;20021;-80
2021/11/23 00:39:19;;;;;;;48.28;27.70;;;3.50;99.90;;;;;;5052847;28;20021;-82
2021/11/23 00:41:47;;;;;;;43.65;25.90;;;3.50;99.90;;;;;;5051333;28;20020;-82
2021/11/23 00:44:19;;;;;;;42.08;23.20;;;3.40;99.90;;;;;;5052483;28;20017;-82
2021/11/23 00:46:45;;;;;;;45.90;25.58;;;3.50;99.90;;;;;;5037173;28;20041;-82
2021/11/23 00:49:13;;;;;;;48.70;25.58;;;3.50;99.90;;;;;;5032681;28;20018;-82
2021/11/23 00:51:38;;;;;;;39.15;23.90;;;3.50;99.90;;;;;;5037646;28;20025;-82
2021/11/23 00:54:05;;;;;;;41.53;24.00;;;3.40;99.90;;;;;;5052241;28;20031;-82
2021/11/23 00:56:30;;;;;;;39.85;22.40;;;3.40;99.90;;;;;;5052176;28;20028;-82
2021/11/23 00:58:56;;;;;;;36.75;22.90;;;3.40;99.90;;;;;;5052572;28;20444;-82
2021/11/23 01:01:22;;;;;;;40.78;23.20;;;3.40;99.90;;;;;;5052628;28;20566;-81
2021/11/23 01:03:48;;;;;;;35.70;22.17;;;3.40;99.90;;;;;;5052475;28;20036;-81
2021/11/23 01:06:14;;;;;;;34.88;22.08;;;3.40;99.90;;;;;;5052219;28;20036;-82
2021/11/23 01:08:39;;;;;;;38.50;22.25;;;3.40;99.90;;;;;;5052116;28;20025;-82
2021/11/23 01:11:07;;;;;;;38.95;22.45;;;3.30;99.90;;;;;;5052327;28;20033;-81
2021/11/23 01:13:33;;;;;;;39.70;22.27;;;3.30;99.90;;;;;;5050663;28;20033;-81
2021/11/23 01:15:59;;;;;;;36.13;22.10;;;3.30;99.90;;;;;;5042259;28;20033;-82
2021/11/23 01:18:25;;;;;;;35.72;21.95;;;3.40;99.90;;;;;;5032126;28;20075;-81
2021/11/23 01:20:52;;;;;;;35.40;21.25;;;3.30;99.90;;;;;;5032201;28;20136;-81
2021/11/23 01:23:18;;;;;;;41.60;24.60;;;3.30;99.90;;;;;;5035179;28;20029;-81
2021/11/23 01:25:44;;;;;;;44.33;25.95;;;3.30;99.90;;;;;;5050507;28;20032;-81
2021/11/23 01:28:10;;;;;;;41.40;23.63;;;3.30;99.90;;;;;;5055273;28;20108;-82
2021/11/23 01:30:36;;;;;;;40.63;23.35;;;3.20;99.90;;;;;;5055816;28;20120;-81
2021/11/23 01:33:02;;;;;;;41.10;23.33;;;3.20;99.90;;;;;;5056102;28;20473;-81
2021/11/23 01:35:27;;;;;;;38.63;23.17;;;3.30;99.90;;;;;;5054636;28;20028;-81
2021/11/23 01:37:53;;;;;;;45.00;24.80;;;3.30;99.90;;;;;;5054566;28;20017;-81
2021/11/23 01:40:19;;;;;;;36.40;22.88;;;3.30;99.90;;;;;;5055954;28;20061;-81
2021/11/23 01:42:46;;;;;;;40.50;24.45;;;3.30;99.90;;;;;;5055232;28;20475;-81
2021/11/23 01:45:12;;;;;;;44.38;25.38;;;3.30;99.90;;;;;;5053015;28;20492;-81
2021/11/23 01:47:38;;;;;;;45.97;24.33;;;3.30;99.90;;;;;;5036158;28;20126;-80
2021/11/23 01:50:06;;;;;;;44.88;24.38;;;3.30;99.90;;;;;;5054288;28;20151;-81
2021/11/23 01:52:32;;;;;;;42.20;22.33;;;3.30;99.90;;;;;;5052280;28;20029;-82
2021/11/23 01:54:58;;;;;;;47.40;27.08;;;3.30;99.90;;;;;;5055930;28;20100;-81
2021/11/23 01:57:24;;;;;;;43.10;25.02;;;3.20;99.90;;;;;;5055660;28;20466;-81
2021/11/23 01:59:50;;;;;;;41.95;23.50;;;3.20;99.90;;;;;;5055235;28;20025;-81
2021/11/23 02:02:16;;;;;;;51.88;28.20;;;3.30;99.90;;;;;;5043437;28;20474;-82
2021/11/23 02:04:42;;;;;;;45.38;26.83;;;3.20;99.90;;;;;;5049861;28;20397;-80
2021/11/23 02:07:08;;;;;;;40.58;26.40;;;3.20;99.90;;;;;;5041600;28;20490;-81
2021/11/23 02:09:34;;;;;;;44.88;27.58;;;3.30;99.90;;;;;;5047219;28;20035;-79
2021/11/23 02:12:01;;;;;;;45.78;25.33;;;3.20;99.90;;;;;;5055383;28;20021;-81
2021/11/23 02:14:30;;;;;;;41.58;25.55;;;3.30;99.90;;;;;;5055485;28;20446;-81
2021/11/23 02:16:56;;;;;;;37.95;23.23;;;3.20;99.90;;;;;;5053203;28;20044;-81
2021/11/23 02:19:22;;;;;;;43.72;24.83;;;3.20;99.90;;;;;;5053751;28;20433;-81
2021/11/23 02:21:48;;;;;;;41.22;25.55;;;3.20;99.90;;;;;;5055017;28;20062;-81
2021/11/23 02:24:14;;;;;;;46.55;28.35;;;3.20;99.90;;;;;;5043239;28;20029;-81
2021/11/23 02:26:39;;;;;;;48.08;27.58;;;3.20;99.90;;;;;;5048721;28;20037;-82
2021/11/23 02:29:05;;;;;;;46.10;26.27;;;3.20;99.90;;;;;;5053329;28;20156;-81
2021/11/23 02:31:31;;;;;;;47.45;26.85;;;3.10;99.90;;;;;;5050491;28;20071;-81
2021/11/23 02:33:57;;;;;;;46.05;25.00;;;3.20;99.90;;;;;;5035276;28;20025;-81
2021/11/23 02:36:23;;;;;;;50.30;30.25;;;3.20;99.90;;;;;;5047318;28;20027;-81
2021/11/23 02:38:49;;;;;;;45.78;27.65;;;3.10;99.90;;;;;;5058508;28;20092;-81
2021/11/23 02:41:17;;;;;;;47.35;27.95;;;3.10;99.90;;;;;;5057012;28;20033;-81
2021/11/23 02:43:43;;;;;;;46.65;27.23;;;3.20;99.90;;;;;;5055158;28;20049;-81
2021/11/23 02:46:09;;;;;;;44.15;27.27;;;3.10;99.90;;;;;;5047669;28;20449;-81
2021/11/23 02:48:37;;;;;;;44.47;24.85;;;3.20;99.90;;;;;;5054172;28;20025;-81
2021/11/23 02:51:16;;;;;;;44.30;24.75;;;3.20;99.90;;;;;;5054507;28;20024;-80
2021/11/23 02:53:49;;;;;;;41.13;24.90;;;3.20;99.90;;;;;;5053810;28;20029;-81
2021/11/23 02:56:15;;;;;;;;;;;3.10;99.90;;;;;;5054273;28;20031;-81
2021/11/23 02:58:46;;;;;;;52.05;26.02;;;3.20;99.90;;;;;;5054145;28;19904;-80
2021/11/23 03:01:13;;;;;;;41.58;23.70;;;3.10;99.90;;;;;;5040464;28;20025;-81
2021/11/23 03:03:39;;;;;;;44.03;26.25;;;3.10;99.90;;;;;;5034212;28;20034;-81
2021/11/23 03:06:05;;;;;;;44.85;25.00;;;3.20;99.90;;;;;;5034089;28;20037;-81
2021/11/23 03:08:33;;;;;;;34.63;22.85;;;3.10;99.90;;;;;;5040786;28;20523;-81
2021/11/23 03:10:59;;;;;;;42.20;24.90;;;3.20;99.90;;;;;;5054126;28;20033;-81
2021/11/23 03:13:25;;;;;;;45.50;25.85;;;3.20;99.90;;;;;;5053333;28;20021;-82
2021/11/23 03:15:50;;;;;;;42.35;24.63;;;3.20;99.90;;;;;;5054196;28;20025;-81
2021/11/23 03:18:16;;;;;;;41.78;22.33;;;3.20;99.90;;;;;;5054101;28;20036;-81
2021/11/23 03:20:44;;;;;;;43.75;24.60;;;3.20;99.90;;;;;;5053777;28;20473;-81
2021/11/23 03:23:11;;;;;;;39.10;22.05;;;3.20;99.90;;;;;;5053909;28;20025;-82
2021/11/23 03:25:36;;;;;;;40.80;23.98;;;3.20;99.90;;;;;;5041088;28;20041;-82
2021/11/23 03:28:04;;;;;;;49.13;26.38;;;3.20;99.90;;;;;;5033276;28;20428;-81
2021/11/23 03:30:31;;;;;;;44.47;25.05;;;3.10;99.90;;;;;;5033227;28;20038;-81
2021/11/23 03:32:59;;;;;;;42.78;22.83;;;3.20;99.90;;;;;;5046411;28;20036;-82
2021/11/23 03:35:28;;;;;;;44.92;26.23;;;3.20;99.90;;;;;;5050156;28;20049;-81
2021/11/23 03:37:55;;;;;;;49.15;28.83;;;3.20;99.90;;;;;;5053874;28;20135;-80
2021/11/23 03:40:22;;;;;;;42.15;23.05;;;3.20;99.90;;;;;;5052459;28;20424;-81
2021/11/23 03:42:48;;;;;;;50.00;25.35;;;3.20;99.90;;;;;;5053487;28;20033;-81
2021/11/23 03:45:14;;;;;;;43.28;24.73;;;3.20;99.90;;;;;;5053591;28;20113;-81
2021/11/23 03:47:40;;;;;;;45.67;24.15;;;3.20;99.90;;;;;;5053535;28;20096;-82
2021/11/23 03:50:09;;;;;;;42.17;24.83;;;3.20;99.90;;;;;;5045094;28;20079;-81
2021/11/23 03:52:35;;;;;;;44.40;24.45;;;3.20;99.90;;;;;;5043580;28;20033;-81
2021/11/23 03:55:03;;;;;;;45.67;26.13;;;3.20;99.90;;;;;;5032125;28;20026;-81
2021/11/23 03:57:28;;;;;;;43.70;24.10;;;3.20;99.90;;;;;;5051967;28;20013;-81
2021/11/23 03:59:54;;;;;;;44.25;25.10;;;3.20;99.90;;;;;;5053467;28;20032;-81
2021/11/23 04:02:23;;;;;;;46.17;24.20;;;3.30;99.90;;;;;;5048441;28;20074;-81
2021/11/23 04:04:49;;;;;;;45.78;25.85;;;3.20;99.90;;;;;;5040159;28;20507;-81
2021/11/23 04:07:15;;;;;;;38.63;21.90;;;3.30;99.90;;;;;;5032336;28;20063;-81
2021/11/23 04:09:41;;;;;;;42.47;25.25;;;3.30;99.90;;;;;;5051671;28;20126;-81
2021/11/23 04:12:08;;;;;;;40.33;26.65;;;3.30;99.90;;;;;;5053163;28;20025;-81
2021/11/23 04:14:34;;;;;;;45.72;26.95;;;3.40;99.90;;;;;;5053355;28;20021;-81
2021/11/23 04:17:00;;;;;;;39.50;24.95;;;3.40;99.90;;;;;;5043693;28;20034;-81
2021/11/23 04:19:28;;;;;;;38.55;23.40;;;3.30;99.90;;;;;;5031677;28;20037;-81
2021/11/23 04:21:57;;;;;;;42.45;23.65;;;3.40;99.90;;;;;;5033024;28;20025;-82
2021/11/23 04:24:23;;;;;;;48.20;28.23;;;3.40;99.90;;;;;;5043860;28;20033;-82
2021/11/23 04:26:49;;;;;;;39.50;23.80;;;3.50;99.90;;;;;;5052650;28;20033;-81
2021/11/23 04:29:14;;;;;;;41.83;23.80;;;3.50;99.90;;;;;;5052427;28;20066;-82
2021/11/23 04:31:40;;;;;;;42.45;24.20;;;3.60;99.90;;;;;;5039678;28;20068;-81
2021/11/23 04:34:06;;;;;;;38.83;23.88;;;3.60;99.90;;;;;;5052585;28;20027;-82
2021/11/23 04:36:32;;;;;;;45.08;25.95;;;3.60;99.90;;;;;;5050964;28;20082;-82
2021/11/23 04:38:58;;;;;;;45.65;25.65;;;3.70;99.90;;;;;;5051787;28;20404;-82
2021/11/23 04:41:23;;;;;;;42.80;24.25;;;3.60;99.90;;;;;;5052778;28;20107;-82
2021/11/23 04:43:49;;;;;;;44.70;25.85;;;3.50;99.90;;;;;;5052487;28;20470;-81
2021/11/23 04:46:15;;;;;;;46.03;25.08;;;3.50;99.90;;;;;;5051422;28;20485;-82
2021/11/23 04:48:41;;;;;;;43.00;25.58;;;3.50;99.90;;;;;;5052696;28;20017;-82
2021/11/23 04:51:06;;;;;;;41.97;24.48;;;3.50;99.90;;;;;;5052782;28;20037;-82
2021/11/23 04:53:32;;;;;;;46.20;25.23;;;3.60;99.90;;;;;;5053076;28;20029;-82
2021/11/23 04:55:58;;;;;;;51.88;27.05;;;3.60;99.90;;;;;;5052866;28;20100;-82
2021/11/23 04:58:24;;;;;;;41.08;24.42;;;3.60;99.90;;;;;;5046604;28;20030;-82
2021/11/23 05:00:49;;;;;;;42.75;24.27;;;3.70;99.90;;;;;;5041233;28;20036;-83
2021/11/23 05:03:15;;;;;;;41.75;25.25;;;3.70;99.90;;;;;;5062338;28;20033;-87
2021/11/23 05:05:42;;;;;;;42.63;23.80;;;3.70;99.90;;;;;;5052794;28;20103;-86
2021/11/23 05:08:07;;;;;;;41.85;24.35;;;3.70;99.90;;;;;;5037346;28;20029;-85
2021/11/23 05:10:33;;;;;;;43.35;24.35;;;3.80;99.90;;;;;;5055054;28;20503;-83
2021/11/23 05:12:59;;;;;;;42.65;25.05;;;3.80;99.90;;;;;;5056187;28;20029;-84
2021/11/23 05:15:24;;;;;;;51.90;24.95;;;3.90;99.90;;;;;;5054807;28;20104;-79
2021/11/23 05:17:50;;;;;;;40.97;24.50;;;3.90;99.90;;;;;;5046224;28;20433;-80
2021/11/23 05:20:16;;;;;;;43.70;24.05;;;3.80;99.90;;;;;;5051261;28;20029;-79
2021/11/23 05:22:42;;;;;;;39.08;23.60;;;3.90;99.90;;;;;;5056203;28;20045;-82
2021/11/23 05:25:08;;;;;;;36.25;22.27;;;3.90;99.90;;;;;;5056375;28;20029;-81
2021/11/23 05:27:34;;;;;;;39.28;23.48;;;3.90;99.90;;;;;;5054960;28;20032;-80
2021/11/23 05:30:00;;;;;;;48.00;26.02;;;4.00;99.90;;;;;;5055917;28;20377;-81
2021/11/23 05:32:27;;;;;;;41.10;23.90;;;3.90;99.90;;;;;;5049995;28;20022;-79
2021/11/23 05:34:53;;;;;;;39.17;23.80;;;4.00;99.90;;;;;;5036046;28;20024;-78
2021/11/23 05:37:19;;;;;;;44.25;25.17;;;4.10;99.90;;;;;;5036181;28;20393;-78
2021/11/23 05:39:46;;;;;;;38.08;23.77;;;4.00;99.90;;;;;;5037332;28;20497;-82
2021/11/23 05:42:11;;;;;;;37.42;24.27;;;4.10;99.90;;;;;;5055692;28;20013;-81
2021/11/23 05:44:37;;;;;;;42.70;25.48;;;4.10;99.90;;;;;;5055407;28;20466;-82
2021/11/23 05:47:04;;;;;;;38.45;25.02;;;4.00;99.90;;;;;;5054096;28;20033;-84
2021/11/23 05:49:30;;;;;;;45.88;24.45;;;4.10;99.90;;;;;;5054469;28;20021;-80
2021/11/23 05:51:56;;;;;;;41.53;25.65;;;4.10;99.90;;;;;;5054779;28;20358;-80
2021/11/23 05:54:22;;;;;;;41.47;27.05;;;4.20;99.90;;;;;;5054817;28;20464;-79
2021/11/23 05:56:48;;;;;;;45.90;26.48;;;4.10;99.90;;;;;;5035433;28;20407;-80
2021/11/23 05:59:14;;;;;;;40.28;23.92;;;4.20;99.90;;;;;;5032982;28;20083;-81
2021/11/23 06:01:40;;;;;;;39.25;25.17;;;4.20;99.90;;;;;;5037009;28;20171;-79
2021/11/23 06:04:06;;;;;;;39.85;26.77;;;4.20;99.90;;;;;;5054843;28;20476;-79
2021/11/23 06:06:31;;;;;;;38.33;25.80;;;4.20;99.90;;;;;;5054599;28;20028;-78
2021/11/23 06:08:57;;;;;;;43.08;26.67;;;4.20;99.90;;;;;;5055606;28;20029;-84
2021/11/23 06:11:23;;;;;;;45.03;27.88;;;4.20;99.90;;;;;;5054256;28;20032;-84
2021/11/23 06:13:49;;;;;;;40.22;27.40;;;4.20;99.90;;;;;;5053111;28;20021;-82
2021/11/23 06:16:16;;;;;;;40.80;26.85;;;4.20;99.90;;;;;;5055455;28;20358;-84
2021/11/23 06:18:42;;;;;;;41.13;26.17;;;4.30;99.90;;;;;;5034090;28;20470;-80
2021/11/23 06:21:08;;;;;;;43.05;26.02;;;4.20;99.90;;;;;;5044701;28;20033;-81
2021/11/23 06:23:35;;;;;;;44.33;28.23;;;4.30;99.90;;;;;;5053282;28;20432;-82
2021/11/23 06:26:01;;;;;;;39.67;25.33;;;4.30;99.90;;;;;;5052643;28;20061;-83
2021/11/23 06:28:27;;;;;;;49.85;31.85;;;4.30;99.90;;;;;;5034859;28;20478;-80
2021/11/23 06:30:53;;;;;;;49.47;29.40;;;4.30;99.90;;;;;;5044871;28;20037;-78
2021/11/23 06:33:18;;;;;;;42.90;27.98;;;4.40;99.90;;;;;;5042749;28;20490;-79
2021/11/23 06:35:45;;;;;;;41.83;28.88;;;4.40;99.90;;;;;;5043911;28;20017;-78
2021/11/23 06:38:11;;;;;;;46.40;30.05;;;4.40;99.90;;;;;;5043493;28;20044;-79
2021/11/23 06:40:38;;;;;;;44.33;29.77;;;4.40;99.90;;;;;;5048353;28;20465;-79
2021/11/23 06:43:05;;;;;;;52.53;31.55;;;4.40;99.90;;;;;;5054049;28;20028;-78
2021/11/23 06:45:31;;;;;;;52.17;32.80;;;4.40;99.90;;;;;;5044160;28;20028;-79
2021/11/23 06:47:57;;;;;;;52.97;33.10;;;4.30;99.90;;;;;;5052890;28;20108;-78
2021/11/23 06:50:22;;;;;;;51.42;32.33;;;4.40;99.90;;;;;;5053535;28;20029;-78
2021/11/23 06:52:48;;;;;;;49.33;32.53;;;4.30;99.90;;;;;;5054327;28;20029;-78
2021/11/23 06:55:14;;;;;;;56.17;33.65;;;4.40;99.90;;;;;;5053217;28;20129;-78
2021/11/23 06:57:40;;;;;;;56.08;34.50;;;4.50;99.90;;;;;;5052394;28;20019;-78
2021/11/23 07:00:09;;;;;;;57.63;35.30;;;4.50;99.90;;;;;;5048940;28;20089;-77
2021/11/23 07:02:35;;;;;;;57.42;34.42;;;4.50;99.90;;;;;;5038578;28;20021;-78
2021/11/23 07:05:00;;;;;;;51.13;32.53;;;4.50;99.90;;;;;;5036610;28;20060;-77
2021/11/23 07:07:27;;;;;;;56.45;35.88;;;4.50;99.90;;;;;;5033037;28;20068;-77
2021/11/23 07:09:53;;;;;;;60.05;38.03;;;4.60;99.90;;;;;;5053046;28;20075;-78
2021/11/23 07:12:19;;;;;;;60.88;37.72;;;4.60;99.90;;;;;;5052975;28;20453;-77
2021/11/23 07:14:45;;;;;;;60.88;40.63;;;4.60;99.90;;;;;;5052719;28;20079;-77
2021/11/23 07:17:11;;;;;;;60.05;39.72;;;4.60;99.90;;;;;;5052173;28;20029;-76
2021/11/23 07:19:37;;;;;;;64.07;41.15;;;4.70;99.90;;;;;;5050547;28;20029;-77
2021/11/23 07:22:03;;;;;;;59.97;39.67;;;4.70;99.90;;;;;;5058858;28;20032;-77
2021/11/23 07:24:29;;;;;;;57.40;37.67;;;4.80;99.90;;;;;;5052215;28;20025;-77
2021/11/23 07:26:55;;;;;;;75.68;45.13;;;4.70;99.90;;;;;;5051579;28;20461;-77
2021/11/23 07:29:21;;;;;;;73.10;45.50;;;4.80;99.90;;;;;;5052767;28;20017;-77
2021/11/23 07:31:47;;;;;;;93.13;58.70;;;4.80;99.90;;;;;;5052519;28;20561;-78
2021/11/23 07:34:13;;;;;;;78.95;51.42;;;4.80;99.90;;;;;;5040731;28;20116;-77
2021/11/23 07:36:38;;;;;;;97.63;59.83;;;4.80;99.90;;;;;;5052525;28;20028;-77
2021/11/23 07:39:05;;;;;;;113.25;69.40;;;4.80;99.90;;;;;;5050562;28;20389;-78
2021/11/23 07:41:31;;;;;;;100.93;63.08;;;4.90;99.90;;;;;;5048766;28;20107;-77
2021/11/23 07:43:57;;;;;;;104.72;64.57;;;4.90;99.90;;;;;;5051710;28;20481;-78
2021/11/23 07:46:25;;;;;;;96.03;58.63;;;4.90;99.90;;;;;;5052004;28;20075;-77
2021/11/23 07:48:51;;;;;;;105.53;60.95;;;4.90;99.90;;;;;;5050832;28;20031;-78
2021/11/23 07:51:17;;;;;;;137.07;74.72;;;4.90;99.90;;;;;;5050173;28;20076;-79
2021/11/23 07:53:43;;;;;;;113.05;64.70;;;4.90;99.90;;;;;;5050442;28;20580;-77
2021/11/23 07:56:10;;;;;;;108.50;65.15;;;4.90;99.90;;;;;;5049514;28;20021;-76
2021/11/23 07:58:36;;;;;;;106.00;60.45;;;4.90;99.90;;;;;;5049872;28;20033;-77
2021/11/23 08:01:03;;;;;;;115.78;64.78;;;4.90;99.90;;;;;;5050390;28;20392;-78
2021/11/23 08:03:28;;;;;;;110.03;62.05;;;5.00;99.90;;;;;;5051740;28;20041;-79
2021/11/23 08:05:55;;;;;;;107.85;64.20;;;5.00;99.90;;;;;;5051202;28;20078;-78
2021/11/23 08:08:21;;;;;;;102.38;62.17;;;5.00;99.90;;;;;;5045256;28;20029;-79
2021/11/23 08:10:47;;;;;;;150.05;78.05;;;5.00;99.90;;;;;;5043466;28;20017;-78
2021/11/23 08:13:13;;;;;;;116.55;64.80;;;5.00;99.90;;;;;;5043317;28;20025;-78
2021/11/23 08:15:40;;;;;;;95.90;56.90;;;5.00;99.90;;;;;;5041997;28;20090;-79
2021/11/23 08:18:07;;;;;;;102.15;57.92;;;5.10;99.90;;;;;;5045419;28;20027;-78
2021/11/23 08:20:34;;;;;;;106.57;59.83;;;5.10;99.90;;;;;;5039859;28;20393;-79
2021/11/23 08:23:00;;;;;;;110.80;60.03;;;5.20;99.90;;;;;;5043311;28;20026;-81
2021/11/23 08:25:26;;;;;;;160.65;79.60;;;5.20;99.90;;;;;;5043083;28;20421;-79
2021/11/23 08:27:54;;;;;;;204.38;90.05;;;5.10;99.90;;;;;;5050550;28;20477;-79
2021/11/23 08:30:20;;;;;;;119.80;66.28;;;5.20;99.90;;;;;;5045266;28;20036;-79
2021/11/23 08:32:46;;;;;;;108.15;58.85;;;5.20;99.90;;;;;;5052495;28;20127;-79
2021/11/23 08:35:12;;;;;;;148.98;74.82;;;5.20;99.90;;;;;;5050102;28;20552;-78
2021/11/23 08:37:38;;;;;;;143.00;73.00;;;5.20;99.90;;;;;;5040758;28;20087;-77
2021/11/23 08:40:06;;;;;;;127.80;64.68;;;5.20;99.90;;;;;;5044553;28;20021;-78
2021/11/23 08:42:32;;;;;;;139.77;70.82;;;5.20;99.90;;;;;;5043548;28;20072;-80
2021/11/23 08:44:57;;;;;;;153.25;76.68;;;5.30;99.90;;;;;;5039370;28;20470;-79
2021/11/23 08:47:24;;;;;;;133.90;73.68;;;5.30;99.90;;;;;;5049451;28;20044;-79
2021/11/23 08:49:50;;;;;;;126.53;64.32;;;5.40;99.90;;;;;;5044931;28;20029;-80
2021/11/23 08:52:18;;;;;;;120.45;59.40;;;5.40;99.90;;;;;;5044874;28;20079;-79
2021/11/23 08:54:44;;;;;;;145.52;69.95;;;5.40;99.90;;;;;;5043274;28;20029;-80
2021/11/23 08:57:10;;;;;;;163.70;71.32;;;5.40;99.90;;;;;;5044845;28;20025;-79
2021/11/23 08:59:40;;;;;;;107.20;56.95;;;5.50;99.90;;;;;;5047298;28;20174;-78
2021/11/23 09:02:06;;;;;;;117.35;58.42;;;5.50;99.90;;;;;;5041443;28;20021;-77
2021/11/23 09:04:34;;;;;;;127.13;60.53;;;5.50;99.90;;;;;;5042930;28;20033;-80
2021/11/23 09:07:06;;;;;;;152.52;70.47;;;5.50;99.90;;;;;;5040457;28;20037;-78
2021/11/23 09:09:32;;;;;;;118.80;57.45;;;5.60;99.90;;;;;;5042327;28;20025;-78
2021/11/23 09:12:01;;;;;;;125.63;62.13;;;5.60;99.90;;;;;;5043516;28;20462;-77
2021/11/23 09:14:28;;;;;;;132.85;64.15;;;5.60;99.90;;;;;;5041162;28;20025;-78
2021/11/23 09:16:56;;;;;;;134.27;66.65;;;5.70;99.90;;;;;;5040800;28;20052;-79
2021/11/23 09:19:22;;;;;;;117.80;61.53;;;5.70;99.90;;;;;;5048621;28;20035;-80
2021/11/23 09:21:48;;;;;;;170.27;79.13;;;5.80;99.90;;;;;;5051252;28;20536;-80
2021/11/23 09:24:13;;;;;;;157.57;75.57;;;5.80;99.90;;;;;;5046439;28;20037;-79
2021/11/23 09:26:39;;;;;;;177.77;80.43;;;5.90;99.90;;;;;;5051332;28;20037;-80
2021/11/23 09:29:05;;;;;;;167.75;73.45;;;5.80;99.90;;;;;;5040810;28;20550;-79
2021/11/23 09:31:30;;;;;;;151.13;72.97;;;5.90;99.90;;;;;;5040920;28;20337;-80
2021/11/23 09:33:56;;;;;;;136.43;67.03;;;5.90;99.90;;;;;;5040872;28;20021;-78
2021/11/23 09:36:22;;;;;;;144.70;68.93;;;6.00;99.90;;;;;;5036451;28;20377;-79
2021/11/23 09:38:48;;;;;;;140.75;64.53;;;5.90;99.90;;;;;;5039392;28;20025;-79
2021/11/23 09:41:13;;;;;;;135.63;65.93;;;6.00;99.90;;;;;;5046584;28;20033;-78
2021/11/23 09:43:40;;;;;;;141.25;67.05;;;6.10;99.90;;;;;;5051405;28;20428;-81
2021/11/23 09:46:08;;;;;;;151.85;67.15;;;6.10;99.90;;;;;;5054966;28;20036;-79
2021/11/23 09:48:41;;;;;;;148.07;64.97;;;6.10;99.90;;;;;;5054876;28;20009;-79
2021/11/23 09:51:23;;;;;;;189.50;73.10;;;6.10;99.90;;;;;;5045318;28;20056;-78
2021/11/23 09:53:49;;;;;;;166.63;63.03;;;6.20;99.90;;;;;;5055728;28;20033;-72
2021/11/23 09:56:15;;;;;;;177.23;68.15;;;6.20;99.90;;;;;;5046404;28;20060;-78
2021/11/23 09:58:41;;;;;;;185.95;66.03;;;6.30;99.90;;;;;;5046604;28;20431;-79
2021/11/23 10:01:09;;;;;;;210.43;72.75;;;6.30;99.90;;;;;;5046236;28;20083;-80
2021/11/23 10:03:35;;;;;;;233.80;80.82;;;6.30;99.90;;;;;;5043170;28;20503;-77
2021/11/23 10:06:11;;;;;;;226.57;75.35;;;6.40;99.90;;;;;;5047021;28;20112;-79
2021/11/23 10:08:40;;;;;;;214.82;69.80;;;6.50;99.90;;;;;;5047527;28;20110;-79
2021/11/23 10:11:06;;;;;;;219.63;72.05;;;6.50;99.90;;;;;;5044536;28;20025;-78
2021/11/23 10:14:00;;;;;;;253.60;78.40;;;6.60;99.90;;;;;;5047003;28;20022;-76
2021/11/23 10:16:38;;;;;;;250.63;78.97;;;6.70;99.90;;;;;;5044242;28;20580;-79
2021/11/23 10:19:09;;;;;;;243.13;73.60;;;6.70;99.90;;;;;;5044201;28;20032;-79
2021/11/23 10:21:45;;;;;;;250.13;73.47;;;6.70;99.90;;;;;;5042582;28;20028;-75
2021/11/23 10:24:12;;;;;;;239.25;70.30;;;6.70;99.90;;;;;;5043117;28;20108;-83
2021/11/23 10:26:37;;;;;;;255.25;72.47;;;6.80;99.90;;;;;;5046117;28;20075;-76
2021/11/23 10:29:06;;;;;;;243.10;74.40;;;6.90;99.90;;;;;;5043743;28;20516;-83
2021/11/23 10:31:38;;;;;;;260.33;77.93;;;6.90;99.90;;;;;;5042735;28;20028;-79
2021/11/23 10:34:06;;;;;;;285.58;78.82;;;6.90;99.90;;;;;;5042369;28;20028;-77
2021/11/23 10:36:38;;;;;;;350.65;144.75;;;7.00;99.90;;;;;;5046764;28;20024;-80
2021/11/23 10:39:11;;;;;;;460.98;229.20;;;7.00;99.90;;;;;;5045725;28;20347;-80
2021/11/23 10:41:38;;;;;;;367.92;145.27;;;7.00;99.90;;;;;;5046501;28;20034;-85
2021/11/23 10:44:14;;;;;;;391.55;170.57;;;7.00;99.90;;;;;;5054296;28;20040;-78
2021/11/23 10:46:39;;;;;;;297.00;98.47;;;7.00;99.90;;;;;;5054059;28;20105;-80
2021/11/23 10:49:05;;;;;;;268.25;75.38;;;7.10;99.90;;;;;;5046700;28;20497;-81
2021/11/23 10:51:39;;;;;;;260.45;73.00;;;7.10;99.90;;;;;;5050546;28;20040;-79
2021/11/23 10:54:16;;;;;;;262.92;77.07;;;7.10;99.90;;;;;;5052332;28;20029;-81
2021/11/23 10:57:06;;;;;;;257.25;69.22;;;7.20;99.90;;;;;;5053586;28;20021;-79
2021/11/23 10:59:34;;;;;;;222.60;66.43;;;7.20;99.90;;;;;;5047531;28;20036;-78
2021/11/23 11:02:00;;;;;;;251.85;73.65;;;7.20;99.90;;;;;;5048918;28;20025;-79
2021/11/23 11:04:27;;;;;;;245.50;68.97;;;7.30;99.90;;;;;;5051470;28;20020;-80
2021/11/23 11:06:55;;;;;;;222.07;66.65;;;7.30;99.90;;;;;;5052900;28;20570;-76
2021/11/23 11:09:23;;;;;;;260.42;84.15;;;7.30;99.90;;;;;;5048933;28;20040;-77
2021/11/23 11:11:49;;;;;;;242.82;76.60;;;7.30;99.90;;;;;;5039884;28;20112;-79
2021/11/23 11:14:15;;;;;;;223.52;68.65;;;7.40;99.90;;;;;;5051705;28;20026;-77
2021/11/23 11:16:41;;;;;;;201.40;62.95;;;7.40;99.90;;;;;;5053608;28;20021;-77
2021/11/23 11:19:08;;;;;;;214.20;68.65;;;7.50;99.90;;;;;;5042812;28;20108;-77
2021/11/23 11:21:41;;;;;;;208.07;63.60;;;7.60;99.90;;;;;;5043290;28;20451;-77
2021/11/23 11:24:29;;;;;;;208.02;61.28;;;7.60;99.90;;;;;;5053566;28;20029;-77
2021/11/23 11:27:00;;;;;;;216.93;61.42;;;7.60;99.90;;;;;;5053422;28;20036;-78
2021/11/23 11:29:28;;;;;;;184.50;60.08;;;7.70;99.90;;;;;;5038448;28;20018;-77
2021/11/23 11:31:53;;;;;;;203.95;61.13;;;7.70;99.90;;;;;;5051056;28;20037;-78
2021/11/23 11:34:36;;;;;;;221.20;65.75;;;7.80;99.90;;;;;;5033001;28;20501;-76
2021/11/23 11:37:10;;;;;;;214.02;65.47;;;7.80;99.90;;;;;;5033234;28;20025;-77
2021/11/23 11:39:35;;;;;;;198.93;58.28;;;7.80;99.90;;;;;;5038056;28;20017;-77
2021/11/23 11:42:02;;;;;;;202.98;59.97;;;7.90;99.90;;;;;;5051351;28;20358;-77
2021/11/23 11:44:42;;;;;;;192.63;58.70;;;7.90;99.90;;;;;;5053279;28;20074;-77
2021/11/23 11:47:11;;;;;;;211.95;63.88;;;8.00;99.90;;;;;;5052656;28;20092;-76
2021/11/23 11:49:52;;;;;;;195.85;65.15;;;8.10;99.90;;;;;;5053199;28;20478;-77
2021/11/23 11:52:19;;;;;;;195.85;59.95;;;8.10;99.90;;;;;;5050561;28;20090;-76
2021/11/23 11:55:19;;;;;;;190.13;60.75;;;8.10;99.90;;;;;;5051508;28;20050;-77
2021/11/23 11:57:47;;;;;;;178.88;59.72;;;8.20;99.90;;;;;;5053028;28;20420;-76
2021/11/23 12:00:28;;;;;;;173.25;52.15;;;8.20;99.90;;;;;;5052418;28;20025;-76
2021/11/23 12:03:00;;;;;;;159.98;54.95;;;8.30;99.90;;;;;;5045119;28;20037;-77
2021/11/23 12:05:49;;;;;;;180.45;56.55;;;8.30;99.90;;;;;;5054252;28;20100;-76
2021/11/23 12:08:25;;;;;;;186.57;61.13;;;8.40;99.90;;;;;;5045878;28;20036;-77
2021/11/23 12:10:51;;;;;;;175.05;54.80;;;8.40;99.90;;;;;;5031417;28;20101;-77
2021/11/23 12:13:44;;;;;;;163.27;52.47;;;8.50;99.90;;;;;;5049234;28;20385;-77
2021/11/23 12:16:35;;;;;;;169.13;54.35;;;8.50;99.90;;;;;;5051450;28;20017;-77
2021/11/23 12:19:10;;;;;;;149.90;50.17;;;8.50;99.90;;;;;;5050538;28;20036;-77
2021/11/23 12:21:57;;;;;;;163.75;51.92;;;8.60;99.90;;;;;;5044985;28;20021;-77
2021/11/23 12:24:31;;;;;;;137.30;48.60;;;8.70;99.90;;;;;;5052389;28;20025;-79
2021/11/23 12:27:10;;;;;;;139.95;50.67;;;8.80;99.90;;;;;;5046017;28;20029;-78
2021/11/23 12:29:36;;;;;;;139.77;46.88;;;8.80;99.90;;;;;;5035465;28;20030;-78
2021/11/23 12:32:02;;;;;;;129.75;47.05;;;8.90;99.90;;;;;;5031563;28;20037;-79
2021/11/23 12:34:29;;;;;;;126.13;45.88;;;8.90;99.90;;;;;;5031593;28;20065;-78